Time;durP1;ratioP1;P1;durP2;ratioP2;P2;SDS_P1;SDS_P2;PMS_P1;PMS_P2;Temp;Humidity;BMP_temperature;BMP_pressure;BME280_temperature;BME280_humidity;BME280_pressure;Samples;Min_cycle;Max_cycle;Signal;HPM_P1;HPM_P2
2022/09/25 00:01:47;;;;;;;3.33;1.65;;;18.00;58.20;;;;;;2297267;54;21009;-72
2022/09/25 00:04:15;;;;;;;4.32;1.80;;;18.00;58.30;;;;;;2311178;55;20969;-71
2022/09/25 00:06:41;;;;;;;2.90;1.52;;;18.00;58.30;;;;;;2316446;55;20985;-74
2022/09/25 00:09:07;;;;;;;3.37;1.70;;;18.00;58.40;;;;;;2476833;54;21353;-72
2022/09/25 00:11:37;;;;;;;2.97;1.83;;;18.00;58.90;;;;;;2317752;55;21333;-74
2022/09/25 00:14:03;;;;;;;3.65;1.90;;;18.00;58.30;;;;;;2384383;55;21050;-72
2022/09/25 00:16:30;;;;;;;3.33;2.00;;;18.00;58.30;;;;;;2481538;54;21001;-70
2022/09/25 00:21:41;;;;;;;3.80;2.22;;;17.90;58.20;;;;;;2311709;55;20969;-72
2022/09/25 00:24:09;;;;;;;3.75;2.47;;;18.00;58.40;;;;;;2314212;55;21895;-72
2022/09/25 00:26:38;;;;;;;4.97;3.25;;;18.00;58.40;;;;;;2506617;54;20981;-70
2022/09/25 00:29:04;;;;;;;5.65;3.22;;;18.00;58.50;;;;;;2331369;55;20960;-74
2022/09/25 00:31:31;;;;;;;5.03;3.37;;;18.10;58.60;;;;;;2302187;55;20946;-71
2022/09/25 00:33:59;;;;;;;5.00;3.22;;;18.00;58.60;;;;;;2290313;54;20934;-71
2022/09/25 00:36:25;;;;;;;4.35;2.83;;;18.00;58.70;;;;;;2446193;54;20952;-73
2022/09/25 00:38:54;;;;;;;5.87;3.35;;;18.00;58.60;;;;;;2449914;54;21029;-71
2022/09/25 00:41:22;;;;;;;5.65;3.60;;;18.00;58.80;;;;;;2310454;55;20941;-73
2022/09/25 00:43:55;;;;;;;5.57;3.47;;;18.00;58.80;;;;;;2312177;55;20974;-72
2022/09/25 00:46:37;;;;;;;4.87;3.20;;;18.00;58.90;;;;;;2297824;54;20945;-76
2022/09/25 00:49:21;;;;;;;4.62;2.60;;;18.00;59.00;;;;;;2313478;55;21012;-71
2022/09/25 00:51:58;;;;;;;5.95;3.78;;;18.00;59.00;;;;;;2300556;54;20978;-70
2022/09/25 00:54:26;;;;;;;5.68;3.62;;;18.10;59.20;;;;;;2375791;55;21044;-71
2022/09/25 00:56:52;;;;;;;5.03;3.30;;;18.10;59.00;;;;;;2307013;54;21049;-73
2022/09/25 00:59:21;;;;;;;4.82;2.97;;;18.10;59.00;;;;;;2302246;55;21024;-71
2022/09/25 01:01:49;;;;;;;4.28;2.92;;;18.00;59.00;;;;;;2309205;55;20962;-71
2022/09/25 01:04:17;;;;;;;5.18;2.80;;;18.00;58.90;;;;;;2298252;55;21013;-72
2022/09/25 01:06:44;;;;;;;4.40;2.70;;;18.00;58.80;;;;;;2292034;54;20972;-72
2022/09/25 01:09:10;;;;;;;5.10;3.30;;;18.10;58.90;;;;;;2354486;55;21097;-71
2022/09/25 01:11:37;;;;;;;4.82;3.17;;;18.10;58.90;;;;;;2308803;55;21032;-72
2022/09/25 01:14:06;;;;;;;5.00;3.42;;;18.10;59.10;;;;;;2308645;55;21364;-72
2022/09/25 01:19:37;;;;;;;4.57;3.17;;;18.10;59.10;;;;;;2315944;54;21004;-72
2022/09/25 01:25:53;;;;;;;4.95;2.60;;;18.10;59.30;;;;;;2312640;55;21119;-70
2022/09/25 01:30:09;;;;;;;4.50;2.60;;;18.10;59.10;;;;;;2313305;55;20925;-72
2022/09/25 01:33:36;;;;;;;4.37;2.62;;;18.10;59.20;;;;;;2547518;54;20992;-72
2022/09/25 01:36:15;;;;;;;3.58;2.05;;;18.10;59.20;;;;;;2316463;54;20977;-72
2022/09/25 01:38:49;;;;;;;3.60;2.30;;;18.10;59.00;;;;;;2314335;55;20976;-72
2022/09/25 01:41:25;;;;;;;4.15;2.60;;;18.00;58.90;;;;;;2313212;55;21030;-72
2022/09/25 01:44:39;;;;;;;3.92;2.58;;;18.10;59.00;;;;;;2289207;55;21361;-72
2022/09/25 01:47:10;;;;;;;6.20;2.37;;;18.10;59.50;;;;;;2295271;55;21429;-72
2022/09/25 01:49:43;;;;;;;4.00;2.42;;;18.10;59.20;;;;;;2310339;55;21036;-71
2022/09/25 01:52:14;;;;;;;3.50;2.00;;;18.10;59.20;;;;;;2315349;55;21016;-72
2022/09/25 01:54:44;;;;;;;4.85;2.78;;;18.10;59.20;;;;;;2308303;54;21457;-72
2022/09/25 01:57:25;;;;;;;3.47;2.25;;;18.10;59.10;;;;;;2301507;55;21001;-72
2022/09/25 02:00:02;;;;;;;4.07;2.30;;;18.10;59.20;;;;;;2315795;55;21025;-74
2022/09/25 02:02:34;;;;;;;4.68;2.47;;;18.10;59.00;;;;;;2338033;54;21486;-71
2022/09/25 02:05:29;;;;;;;4.65;2.53;;;18.10;59.00;;;;;;2299849;54;21968;-73
2022/09/25 02:08:04;;;;;;;3.97;2.42;;;18.10;59.30;;;;;;2299419;55;21020;-73
2022/09/25 02:10:34;;;;;;;4.25;2.65;;;18.10;59.10;;;;;;2299605;55;21100;-72
2022/09/25 02:13:09;;;;;;;6.87;2.83;;;18.10;59.00;;;;;;2305219;55;21060;-72
2022/09/25 02:15:42;;;;;;;4.70;2.95;;;18.10;59.00;;;;;;2294956;54;21032;-72
2022/09/25 02:21:43;;;;;;;4.47;2.42;;;18.00;59.00;;;;;;2301464;55;20122;-71
2022/09/25 02:24:32;;;;;;;3.67;2.20;;;18.00;58.90;;;;;;2294960;55;21755;-72
2022/09/25 02:27:02;;;;;;;4.10;2.40;;;18.00;58.90;;;;;;2308528;54;20961;-71
2022/09/25 02:29:30;;;;;;;3.80;2.33;;;17.90;58.60;;;;;;2553236;54;20985;-74
2022/09/25 02:31:58;;;;;;;4.45;2.47;;;18.00;58.80;;;;;;2297352;55;21538;-72
2022/09/25 02:34:24;;;;;;;4.50;2.40;;;18.00;58.90;;;;;;2517232;54;21114;-72
2022/09/25 02:36:51;;;;;;;3.75;2.12;;;18.00;58.90;;;;;;2300082;55;20997;-72
2022/09/25 02:39:19;;;;;;;4.53;2.25;;;18.00;58.90;;;;;;2313360;55;20981;-72
2022/09/25 02:42:48;;;;;;;3.60;2.10;;;18.00;59.00;;;;;;2306073;54;21238;-71
2022/09/25 02:48:15;;;;;;;3.67;2.20;;;17.90;59.00;;;;;;2311485;55;20968;-72
2022/09/25 02:51:42;;;;;;;3.00;1.80;;;17.80;58.70;;;;;;2307870;55;21033;-72
2022/09/25 02:54:19;;;;;;;3.37;2.00;;;17.90;58.60;;;;;;2290794;54;21018;-71
2022/09/25 02:58:26;;;;;;;5.90;2.70;;;17.90;58.60;;;;;;2314310;55;20933;-71
2022/09/25 03:00:55;;;;;;;4.22;2.05;;;17.80;58.60;;;;;;2402116;54;21038;-71
2022/09/25 03:03:22;;;;;;;4.35;2.55;;;17.80;58.40;;;;;;2291830;55;21033;-72
2022/09/25 03:05:49;;;;;;;4.10;2.62;;;17.80;59.10;;;;;;2311349;55;20957;-74
2022/09/25 03:11:00;;;;;;;5.00;2.37;;;17.70;58.60;;;;;;2313058;55;21023;-73
2022/09/25 03:13:30;;;;;;;6.05;2.60;;;17.70;58.60;;;;;;2300897;55;21037;-74
2022/09/25 03:17:52;;;;;;;6.65;2.62;;;17.70;58.70;;;;;;2308270;55;20961;-71
2022/09/25 03:20:18;;;;;;;4.20;2.15;;;17.70;58.90;;;;;;2298234;54;21022;-72
2022/09/25 03:22:45;;;;;;;4.20;2.60;;;17.70;58.70;;;;;;2288124;54;21838;-71
2022/09/25 03:25:15;;;;;;;4.45;2.97;;;17.70;58.80;;;;;;2291794;54;20945;-73
2022/09/25 03:27:42;;;;;;;6.55;3.05;;;17.60;58.80;;;;;;2290742;55;21577;-73
2022/09/25 03:30:09;;;;;;;5.03;3.12;;;17.60;58.80;;;;;;2314773;54;20985;-72
2022/09/25 03:32:37;;;;;;;5.82;3.35;;;17.60;58.80;;;;;;2314000;55;20941;-72
2022/09/25 03:35:04;;;;;;;6.37;3.17;;;17.60;58.80;;;;;;2314111;55;21049;-72
2022/09/25 03:37:31;;;;;;;5.87;3.72;;;17.60;58.80;;;;;;2296168;55;21525;-71
2022/09/25 03:39:57;;;;;;;7.40;4.28;;;17.60;58.90;;;;;;2313646;55;20969;-76
2022/09/25 03:42:26;;;;;;;6.55;4.20;;;17.60;59.00;;;;;;2313371;55;21024;-72
2022/09/25 03:44:55;;;;;;;8.85;4.60;;;17.60;59.10;;;;;;2291983;54;21046;-73
2022/09/25 03:47:22;;;;;;;7.87;4.37;;;17.60;59.20;;;;;;2299308;55;20953;-71
2022/09/25 03:49:49;;;;;;;6.50;3.58;;;17.60;59.30;;;;;;2495165;54;20936;-72
2022/09/25 03:52:17;;;;;;;5.53;3.53;;;17.60;59.30;;;;;;2293691;55;21012;-72
2022/09/25 03:54:44;;;;;;;7.18;4.05;;;17.60;59.40;;;;;;2300843;55;21009;-72
2022/09/25 03:57:11;;;;;;;5.35;3.30;;;17.60;59.50;;;;;;2389435;55;21040;-72
2022/09/25 03:59:37;;;;;;;4.97;2.70;;;17.60;59.50;;;;;;2314059;55;21868;-72
2022/09/25 04:02:07;;;;;;;5.65;3.65;;;17.60;59.50;;;;;;2313823;55;20929;-71
2022/09/25 04:04:33;;;;;;;6.43;4.20;;;17.60;59.60;;;;;;2351849;54;22035;-72
2022/09/25 04:07:04;;;;;;;5.35;3.42;;;17.60;59.60;;;;;;2520745;54;20982;-72
2022/09/25 04:09:31;;;;;;;5.90;3.60;;;17.60;59.60;;;;;;2302755;55;21009;-72
2022/09/25 04:11:57;;;;;;;6.22;3.40;;;17.60;59.50;;;;;;2488642;54;20969;-74
2022/09/25 04:14:24;;;;;;;5.07;2.90;;;17.60;59.60;;;;;;2294852;54;21069;-72
2022/09/25 04:16:53;;;;;;;4.50;2.60;;;17.60;59.60;;;;;;2547922;54;21033;-74
2022/09/25 04:19:21;;;;;;;4.72;2.65;;;17.60;59.60;;;;;;2314852;55;21053;-72
2022/09/25 04:21:47;;;;;;;4.75;2.45;;;17.60;59.50;;;;;;2296405;55;21827;-72
2022/09/25 04:27:49;;;;;;;7.95;2.08;;;17.60;59.40;;;;;;2552561;54;20997;-71
2022/09/25 04:30:16;;;;;;;3.28;1.62;;;17.70;59.40;;;;;;2301950;54;21906;-72
2022/09/25 04:35:27;;;;;;;3.37;1.75;;;17.70;60.10;;;;;;2297316;54;21922;-72
2022/09/25 04:37:54;;;;;;;5.37;2.28;;;17.70;59.40;;;;;;2548123;54;20953;-72
2022/09/25 04:40:21;;;;;;;4.05;2.00;;;17.60;59.90;;;;;;2291306;54;21902;-72
2022/09/25 04:42:48;;;;;;;3.65;1.83;;;17.60;59.40;;;;;;2401616;54;21065;-72
2022/09/25 04:45:14;;;;;;;4.03;2.08;;;17.70;59.40;;;;;;2307208;55;20941;-71
2022/09/25 04:47:41;;;;;;;8.80;2.50;;;17.60;59.30;;;;;;2314137;55;20972;-72
2022/09/25 04:50:07;;;;;;;4.07;2.12;;;17.70;59.30;;;;;;2295418;54;21061;-73
2022/09/25 04:52:34;;;;;;;6.03;3.10;;;17.60;59.30;;;;;;2551918;54;21513;-71
2022/09/25 04:55:00;;;;;;;5.05;2.65;;;17.70;59.40;;;;;;2539784;54;20982;-72
2022/09/25 04:57:26;;;;;;;4.78;2.37;;;17.70;59.40;;;;;;2289679;55;20970;-75
2022/09/25 05:00:15;;;;;;;4.18;2.37;;;17.60;59.30;;;;;;2308972;54;21105;-72
2022/09/25 05:02:42;;;;;;;3.97;1.95;;;17.70;59.30;;;;;;2299912;55;20980;-72
2022/09/25 05:05:09;;;;;;;4.05;2.15;;;17.60;59.20;;;;;;2441956;54;20949;-72
2022/09/25 05:07:35;;;;;;;3.97;2.28;;;17.60;59.20;;;;;;2295208;54;20977;-72
2022/09/25 05:10:03;;;;;;;5.82;2.10;;;17.60;59.20;;;;;;2312667;55;20950;-72
2022/09/25 05:12:29;;;;;;;3.53;1.85;;;17.60;59.20;;;;;;2550889;54;21405;-72
2022/09/25 05:14:55;;;;;;;3.30;1.80;;;17.60;59.20;;;;;;2303614;54;21029;-72
2022/09/25 05:17:21;;;;;;;3.83;2.00;;;17.60;59.10;;;;;;2306060;55;20945;-72
2022/09/25 05:19:48;;;;;;;4.82;2.12;;;17.60;59.20;;;;;;2313986;55;21022;-72
2022/09/25 05:22:16;;;;;;;3.03;1.70;;;17.60;59.10;;;;;;2345915;54;21005;-72
2022/09/25 05:24:42;;;;;;;3.33;1.70;;;17.60;59.20;;;;;;2303214;55;21056;-72
2022/09/25 05:27:09;;;;;;;3.08;1.35;;;17.60;59.10;;;;;;2313816;55;20991;-73
2022/09/25 05:29:35;;;;;;;3.78;1.58;;;17.60;59.10;;;;;;2315113;55;21870;-72
2022/09/25 05:32:01;;;;;;;3.12;1.42;;;17.60;59.10;;;;;;2312470;55;20993;-71
2022/09/25 05:34:28;;;;;;;3.53;1.75;;;17.60;59.20;;;;;;2466191;54;20972;-73
2022/09/25 05:36:57;;;;;;;3.62;1.70;;;17.50;59.10;;;;;;2310336;55;21027;-72
2022/09/25 05:39:23;;;;;;;3.22;1.73;;;17.50;59.20;;;;;;2472596;54;20960;-72
2022/09/25 05:41:50;;;;;;;3.08;1.60;;;17.50;59.10;;;;;;2314627;55;20944;-74
2022/09/25 05:44:16;;;;;;;2.87;1.40;;;17.50;59.10;;;;;;2470622;54;20993;-72
2022/09/25 05:46:43;;;;;;;3.40;1.60;;;17.60;59.20;;;;;;2290136;55;21081;-72
2022/09/25 05:49:09;;;;;;;3.70;1.83;;;17.50;59.10;;;;;;2306490;55;21028;-71
2022/09/25 05:51:36;;;;;;;3.80;1.95;;;17.50;59.20;;;;;;2374034;54;20998;-72
2022/09/25 05:54:04;;;;;;;2.62;1.55;;;17.50;59.30;;;;;;2525466;54;20965;-72
2022/09/25 05:56:30;;;;;;;4.12;2.10;;;17.50;59.30;;;;;;2313146;55;20973;-71
2022/09/25 05:59:00;;;;;;;3.10;1.37;;;17.50;59.30;;;;;;2312700;55;20997;-71
2022/09/25 06:01:27;;;;;;;2.62;1.30;;;17.50;59.40;;;;;;2311154;55;20989;-75
2022/09/25 06:03:53;;;;;;;2.70;1.33;;;17.50;59.30;;;;;;2279265;55;22026;-71
2022/09/25 06:06:21;;;;;;;3.10;1.50;;;17.50;59.40;;;;;;2298550;55;21048;-72
2022/09/25 06:08:52;;;;;;;2.45;1.33;;;17.50;59.40;;;;;;2310065;55;21006;-71
2022/09/25 06:11:19;;;;;;;2.60;1.37;;;17.50;59.50;;;;;;2296514;54;21025;-73
2022/09/25 06:13:49;;;;;;;2.65;1.27;;;17.50;59.50;;;;;;2316175;55;21505;-72
2022/09/25 06:16:19;;;;;;;2.50;1.30;;;17.50;60.00;;;;;;2411301;54;21475;-72
2022/09/25 06:18:46;;;;;;;3.25;1.50;;;17.50;59.50;;;;;;2305152;54;20993;-71
2022/09/25 06:21:12;;;;;;;3.00;1.70;;;17.50;59.60;;;;;;2376623;54;20960;-72
2022/09/25 06:23:40;;;;;;;3.42;1.85;;;17.50;59.60;;;;;;2339065;55;20958;-74
2022/09/25 06:26:06;;;;;;;3.17;1.60;;;17.50;59.70;;;;;;2290652;55;21060;-71
2022/09/25 06:28:34;;;;;;;4.05;2.10;;;17.50;59.70;;;;;;2302894;55;21028;-72
2022/09/25 06:31:01;;;;;;;4.68;1.90;;;17.50;59.70;;;;;;2359767;54;21037;-72
2022/09/25 06:33:27;;;;;;;4.95;2.20;;;17.60;59.90;;;;;;2295573;54;21466;-73
2022/09/25 06:35:55;;;;;;;3.53;1.87;;;17.60;59.90;;;;;;2309407;55;21833;-70
2022/09/25 06:38:23;;;;;;;3.30;1.83;;;17.60;60.00;;;;;;2291469;55;21495;-72
2022/09/25 06:40:51;;;;;;;4.45;2.10;;;17.60;60.00;;;;;;2288362;54;21894;-72
2022/09/25 06:43:21;;;;;;;3.03;1.75;;;17.60;60.00;;;;;;2314413;55;21432;-74
2022/09/25 06:45:49;;;;;;;3.17;1.65;;;17.60;60.10;;;;;;2315112;54;21461;-72
2022/09/25 06:48:16;;;;;;;3.30;1.62;;;17.60;60.10;;;;;;2312956;55;21004;-71
2022/09/25 06:50:46;;;;;;;3.10;1.60;;;17.60;60.10;;;;;;2295291;54;21805;-74
2022/09/25 06:53:13;;;;;;;3.12;1.70;;;17.60;60.30;;;;;;2308224;55;21005;-72
2022/09/25 06:55:39;;;;;;;2.83;1.45;;;17.70;60.30;;;;;;2342366;54;20989;-73
2022/09/25 06:58:07;;;;;;;3.25;1.77;;;17.60;60.20;;;;;;2294258;55;20999;-72
2022/09/25 07:00:34;;;;;;;3.22;1.67;;;17.70;60.40;;;;;;2313554;54;21271;-72
2022/09/25 07:05:47;;;;;;;3.03;1.73;;;17.70;60.40;;;;;;2315452;55;21847;-73
2022/09/25 07:08:17;;;;;;;3.30;1.75;;;17.70;60.40;;;;;;2300108;55;21022;-74
2022/09/25 07:10:48;;;;;;;2.83;1.45;;;17.80;60.70;;;;;;2274026;54;20998;-71
2022/09/25 07:13:16;;;;;;;3.50;1.90;;;17.80;60.60;;;;;;2313994;55;21718;-72
2022/09/25 07:15:42;;;;;;;3.83;2.00;;;17.80;60.50;;;;;;2294535;55;20929;-73
2022/09/25 07:18:09;;;;;;;3.30;1.80;;;17.80;60.50;;;;;;2354065;54;21004;-75
2022/09/25 07:20:36;;;;;;;3.83;2.30;;;17.90;60.60;;;;;;2303890;55;21940;-72
2022/09/25 07:23:03;;;;;;;4.03;2.12;;;17.90;60.60;;;;;;2294052;54;20950;-72
2022/09/25 07:25:32;;;;;;;3.45;1.98;;;17.90;60.60;;;;;;2291480;54;21911;-70
2022/09/25 07:27:58;;;;;;;3.40;1.95;;;18.00;60.70;;;;;;2316706;55;20961;-73
2022/09/25 07:30:28;;;;;;;4.47;2.30;;;17.90;61.20;;;;;;2305943;55;21084;-71
2022/09/25 07:32:55;;;;;;;3.53;2.00;;;18.00;60.70;;;;;;2304702;55;20949;-72
2022/09/25 07:35:26;;;;;;;3.65;2.03;;;18.00;60.60;;;;;;2312338;55;20970;-72
2022/09/25 07:37:55;;;;;;;4.50;2.60;;;18.10;60.70;;;;;;2294226;55;21070;-73
2022/09/25 07:40:26;;;;;;;3.28;1.83;;;18.10;60.70;;;;;;2290422;55;21618;-70
2022/09/25 07:42:52;;;;;;;3.28;1.98;;;18.10;60.70;;;;;;2303020;55;20941;-71
2022/09/25 07:45:18;;;;;;;3.30;1.85;;;18.10;60.70;;;;;;2304945;55;21057;-70
2022/09/25 07:47:46;;;;;;;3.78;2.00;;;18.10;60.70;;;;;;2287874;55;20961;-72
2022/09/25 07:50:12;;;;;;;3.95;2.28;;;18.20;60.70;;;;;;2293475;55;21816;-72
2022/09/25 07:52:41;;;;;;;4.93;2.25;;;18.20;60.70;;;;;;2293209;55;20969;-74
2022/09/25 07:55:07;;;;;;;4.53;2.70;;;18.20;60.70;;;;;;2312401;55;21062;-71
2022/09/25 07:57:34;;;;;;;4.60;2.67;;;18.20;60.60;;;;;;2527497;54;21050;-73
2022/09/25 08:00:00;;;;;;;4.93;3.08;;;18.30;60.70;;;;;;2307166;55;20937;-72
2022/09/25 08:02:27;;;;;;;5.40;3.28;;;18.30;60.70;;;;;;2311524;55;21773;-71
2022/09/25 08:04:55;;;;;;;5.68;3.37;;;18.30;60.70;;;;;;2492594;54;21001;-71
2022/09/25 08:07:21;;;;;;;4.43;2.58;;;18.30;60.70;;;;;;2468356;54;21013;-72
2022/09/25 08:09:47;;;;;;;5.28;3.05;;;18.40;60.70;;;;;;2292295;55;21041;-75
2022/09/25 08:12:14;;;;;;;5.70;3.42;;;18.40;60.60;;;;;;2285929;55;21000;-72
2022/09/25 08:14:40;;;;;;;6.53;4.35;;;18.40;60.60;;;;;;2317468;54;20964;-72
2022/09/25 08:17:07;;;;;;;6.65;3.92;;;18.50;60.70;;;;;;2293961;54;20993;-72
2022/09/25 08:19:34;;;;;;;7.80;4.85;;;18.50;60.70;;;;;;2294282;54;20986;-72
2022/09/25 08:22:00;;;;;;;7.22;4.47;;;18.50;60.60;;;;;;2515979;54;21146;-74
2022/09/25 08:24:26;;;;;;;8.20;4.68;;;18.50;60.60;;;;;;2294174;54;20962;-71
2022/09/25 08:26:53;;;;;;;6.55;3.83;;;18.60;60.70;;;;;;2301184;54;21006;-71
2022/09/25 08:29:23;;;;;;;6.97;3.87;;;18.60;60.70;;;;;;2301213;55;21035;-72
2022/09/25 08:31:50;;;;;;;7.03;4.35;;;18.60;60.70;;;;;;2392235;55;21804;-72
2022/09/25 08:34:17;;;;;;;8.63;4.78;;;18.70;60.60;;;;;;2546659;54;20965;-74
2022/09/25 08:37:06;;;;;;;7.97;4.45;;;18.70;60.50;;;;;;2287745;55;21250;-74
2022/09/25 08:39:33;;;;;;;7.07;4.30;;;18.70;60.50;;;;;;2301702;55;20984;-72
2022/09/25 08:42:00;;;;;;;5.78;3.60;;;18.70;60.50;;;;;;2311580;55;21871;-71
2022/09/25 08:44:37;;;;;;;5.80;3.72;;;18.80;60.50;;;;;;2313615;55;21896;-72
2022/09/25 08:50:13;;;;;;;6.87;4.07;;;18.80;60.80;;;;;;2290344;54;21836;-72
2022/09/25 08:52:41;;;;;;;6.47;3.72;;;18.80;60.50;;;;;;2501962;54;21097;-72
2022/09/25 08:58:25;;;;;;;5.85;3.33;;;18.90;60.40;;;;;;2370030;54;21033;-72
2022/09/25 09:01:00;;;;;;;6.15;3.70;;;18.90;60.20;;;;;;2397103;54;20973;-71
2022/09/25 09:03:29;;;;;;;5.07;3.05;;;18.90;60.30;;;;;;2311334;54;21026;-75
2022/09/25 09:06:06;;;;;;;6.28;3.67;;;19.00;60.40;;;;;;2446932;54;20991;-74
2022/09/25 09:08:33;;;;;;;7.87;3.95;;;19.00;60.50;;;;;;2280394;55;23204;-72
2022/09/25 09:11:09;;;;;;;7.03;4.45;;;19.00;60.30;;;;;;2518579;54;21126;-72
2022/09/25 09:14:03;;;;;;;8.25;4.57;;;19.10;60.30;;;;;;2534186;54;21848;-74
2022/09/25 09:16:35;;;;;;;6.53;3.97;;;19.10;60.50;;;;;;2297664;54;21015;-76
2022/09/25 09:19:03;;;;;;;8.55;4.70;;;19.20;60.30;;;;;;2554181;54;20945;-71
2022/09/25 09:22:52;;;;;;;5.37;3.35;;;19.20;60.20;;;;;;2313843;55;21843;-74
2022/09/25 09:25:34;;;;;;;7.37;3.97;;;19.30;60.10;;;;;;2314213;55;20953;-74
2022/09/25 09:32:51;;;;;;;6.05;3.53;;;19.30;60.00;;;;;;2314587;55;20969;-73
2022/09/25 09:36:12;;;;;;;4.18;2.25;;;19.40;59.80;;;;;;2315386;55;21009;-76
2022/09/25 09:41:40;;;;;;;4.78;3.00;;;19.50;59.50;;;;;;2314478;55;21076;-72
2022/09/25 09:44:59;;;;;;;5.10;2.75;;;19.50;59.30;;;;;;2315135;55;20997;-72
2022/09/25 09:48:08;;;;;;;5.95;3.08;;;19.50;59.10;;;;;;2539482;54;20987;-72
2022/09/25 09:50:42;;;;;;;4.87;2.78;;;19.50;58.90;;;;;;2310672;54;21791;-72
2022/09/25 09:55:50;;;;;;;5.80;3.50;;;19.50;59.10;;;;;;2314354;55;20937;-73
2022/09/25 09:58:24;;;;;;;3.90;2.37;;;19.50;59.30;;;;;;2314495;55;20953;-73
2022/09/25 10:00:50;;;;;;;;;;;19.50;59.30;;;;;;2324484;54;20976;-75
2022/09/25 10:03:19;;;;;;;4.25;2.28;;;19.50;59.40;;;;;;2310395;55;20088;-73
2022/09/25 10:06:00;;;;;;;7.72;3.92;;;19.50;59.30;;;;;;2299207;54;20949;-72
2022/09/25 10:08:27;;;;;;;6.87;3.87;;;19.50;59.40;;;;;;2555115;54;20929;-73
2022/09/25 10:10:53;;;;;;;6.65;3.62;;;19.60;59.40;;;;;;2529872;54;20958;-73
2022/09/25 10:13:45;;;;;;;7.65;3.55;;;19.60;59.30;;;;;;2313931;55;21445;-75
2022/09/25 10:16:15;;;;;;;5.65;3.30;;;19.60;59.40;;;;;;2314143;55;21503;-72
2022/09/25 10:19:10;;;;;;;5.70;3.22;;;19.60;59.30;;;;;;2317629;55;20952;-72
2022/09/25 10:21:44;;;;;;;4.68;2.58;;;19.70;59.30;;;;;;2302981;55;21024;-74
2022/09/25 10:25:04;;;;;;;4.35;2.60;;;19.70;59.30;;;;;;2313721;55;21006;-72
2022/09/25 10:27:40;;;;;;;4.40;2.65;;;19.70;59.10;;;;;;2315055;55;21101;-75
2022/09/25 10:30:17;;;;;;;4.35;2.60;;;19.80;59.20;;;;;;2315697;55;21538;-73
2022/09/25 10:33:03;;;;;;;4.65;2.90;;;19.80;59.20;;;;;;2314866;55;21399;-72
2022/09/25 10:35:44;;;;;;;4.93;3.10;;;19.80;58.90;;;;;;2317136;55;20957;-73
2022/09/25 10:44:59;;;;;;;4.70;3.00;;;19.90;58.90;;;;;;2312480;55;21913;-73
2022/09/25 10:50:22;;;;;;;5.40;3.08;;;20.00;58.80;;;;;;2555028;54;20976;-74
2022/09/25 10:52:57;;;;;;;5.50;3.60;;;20.00;58.70;;;;;;2367072;54;20940;-71
2022/09/25 10:55:38;;;;;;;6.37;3.33;;;20.10;59.00;;;;;;2467643;54;21025;-72
2022/09/25 10:58:20;;;;;;;5.57;3.72;;;20.00;58.90;;;;;;2294555;55;21289;-73
2022/09/25 11:00:54;;;;;;;4.62;3.05;;;20.10;59.00;;;;;;2312410;55;20961;-76
2022/09/25 11:03:29;;;;;;;5.80;3.53;;;20.10;59.00;;;;;;2314026;55;20976;-72
2022/09/25 11:06:27;;;;;;;5.20;3.00;;;20.20;59.10;;;;;;2342333;54;21467;-76
2022/09/25 11:09:00;;;;;;;4.40;2.83;;;20.30;59.20;;;;;;2314326;55;20946;-72
2022/09/25 11:11:27;;;;;;;4.03;2.50;;;20.30;59.10;;;;;;2314766;55;20989;-74
2022/09/25 11:13:58;;;;;;;5.32;3.08;;;20.40;59.00;;;;;;2315221;55;20953;-72
2022/09/25 11:16:45;;;;;;;5.40;3.15;;;20.50;58.80;;;;;;2403709;54;20985;-75
2022/09/25 11:19:18;;;;;;;5.10;2.83;;;20.50;58.30;;;;;;2314197;55;21689;-72
2022/09/25 11:21:58;;;;;;;7.55;2.97;;;20.60;58.30;;;;;;2302097;55;21598;-73
2022/09/25 11:25:32;;;;;;;4.93;2.67;;;20.60;58.00;;;;;;2311041;55;21072;-72
2022/09/25 11:29:11;;;;;;;4.45;2.45;;;20.70;57.70;;;;;;2315190;55;21844;-76
2022/09/25 11:31:45;;;;;;;4.10;2.42;;;20.70;57.70;;;;;;2426772;54;20973;-72
2022/09/25 11:35:44;;;;;;;5.43;2.60;;;20.70;57.70;;;;;;2315266;55;21013;-73
2022/09/25 11:43:18;;;;;;;4.43;2.45;;;20.70;57.20;;;;;;2554696;54;21640;-72
2022/09/25 11:45:52;;;;;;;3.85;2.10;;;20.70;57.30;;;;;;2291476;55;20990;-72
2022/09/25 11:48:53;;;;;;;4.05;2.28;;;20.70;57.10;;;;;;2538908;54;20926;-73
2022/09/25 11:51:51;;;;;;;4.85;1.92;;;20.70;56.70;;;;;;2367121;54;21052;-73
2022/09/25 11:54:55;;;;;;;3.37;1.80;;;20.70;56.90;;;;;;2314132;55;20932;-71
2022/09/25 11:58:06;;;;;;;4.68;2.08;;;20.70;56.80;;;;;;2313777;55;21130;-72
2022/09/25 12:00:54;;;;;;;4.97;2.22;;;20.70;56.80;;;;;;2314488;55;20993;-71
2022/09/25 12:03:45;;;;;;;5.90;2.33;;;20.60;56.50;;;;;;2314940;55;21024;-73
2022/09/25 12:11:48;;;;;;;4.30;2.50;;;20.60;56.50;;;;;;2317177;55;20965;-72
2022/09/25 12:14:39;;;;;;;4.32;2.62;;;20.50;56.50;;;;;;2314793;55;21371;-71
2022/09/25 12:17:19;;;;;;;5.70;3.45;;;20.50;56.60;;;;;;2315217;55;21727;-70
2022/09/25 12:23:12;;;;;;;5.32;3.60;;;20.40;56.50;;;;;;2331119;54;21085;-72
2022/09/25 12:26:21;;;;;;;5.57;3.47;;;20.40;56.70;;;;;;2316990;54;21027;-74
2022/09/25 12:30:25;;;;;;;7.37;3.40;;;20.20;56.70;;;;;;2317378;55;20969;-72
2022/09/25 12:33:04;;;;;;;;;;;20.20;56.90;;;;;;2292527;54;21022;-71
2022/09/25 12:36:21;;;;;;;4.32;2.85;;;20.10;57.00;;;;;;2297786;54;20068;-72
2022/09/25 12:38:54;;;;;;;5.47;3.33;;;20.10;57.40;;;;;;2316012;55;20977;-71
2022/09/25 12:41:48;;;;;;;5.12;3.35;;;20.10;57.40;;;;;;2315234;55;20977;-71
2022/09/25 12:44:32;;;;;;;5.55;3.28;;;20.00;57.40;;;;;;2315659;55;21006;-72
2022/09/25 12:47:07;;;;;;;5.37;3.72;;;20.00;57.50;;;;;;2315443;55;20929;-72
2022/09/25 12:56:13;;;;;;;6.32;3.70;;;19.90;58.40;;;;;;2329268;54;21025;-72
2022/09/25 13:01:58;;;;;;;4.62;2.97;;;19.80;58.80;;;;;;2315278;55;21068;-74
2022/09/25 13:06:16;;;;;;;4.07;2.30;;;19.80;59.40;;;;;;2314685;55;21017;-74
2022/09/25 13:09:38;;;;;;;4.80;2.85;;;19.70;59.90;;;;;;2509941;54;20996;-74
2022/09/25 13:12:14;;;;;;;6.20;3.90;;;19.70;59.90;;;;;;2315525;55;20980;-73
2022/09/25 13:14:53;;;;;;;6.57;3.78;;;19.80;60.70;;;;;;2315386;55;20953;-74
2022/09/25 13:17:19;;;;;;;6.35;4.20;;;19.70;60.90;;;;;;2311974;55;20969;-73
2022/09/25 13:19:45;;;;;;;6.47;4.60;;;19.70;61.30;;;;;;2314580;55;20993;-74
2022/09/25 13:22:25;;;;;;;6.47;4.37;;;19.60;61.50;;;;;;2554542;54;20966;-74
2022/09/25 13:25:13;;;;;;;5.35;3.58;;;19.70;62.00;;;;;;2498130;54;20956;-73
2022/09/25 13:27:42;;;;;;;6.12;4.00;;;19.70;62.20;;;;;;2315204;55;21734;-74
2022/09/25 13:30:25;;;;;;;6.72;3.90;;;19.70;62.60;;;;;;2360242;54;21029;-73
2022/09/25 13:32:52;;;;;;;5.90;4.20;;;19.80;62.70;;;;;;2310019;54;21521;-74
2022/09/25 13:35:20;;;;;;;8.02;3.72;;;19.80;63.00;;;;;;2555977;54;20933;-73
2022/09/25 13:37:47;;;;;;;7.30;3.80;;;19.80;63.10;;;;;;2318148;54;20898;-74
2022/09/25 13:40:44;;;;;;;5.95;3.55;;;19.90;63.10;;;;;;2308313;55;20985;-74
2022/09/25 13:43:45;;;;;;;6.18;4.10;;;19.90;63.00;;;;;;2356271;55;21061;-74
2022/09/25 13:46:44;;;;;;;4.10;2.83;;;20.00;63.00;;;;;;2315210;55;21485;-73
2022/09/25 13:49:32;;;;;;;4.95;3.45;;;20.00;62.90;;;;;;2315511;55;21064;-74
2022/09/25 13:51:58;;;;;;;4.65;2.78;;;20.10;63.00;;;;;;2315506;55;21822;-74
2022/09/25 13:54:26;;;;;;;5.12;3.37;;;20.10;63.30;;;;;;2555529;54;21761;-74
2022/09/25 13:56:54;;;;;;;5.62;3.62;;;20.10;63.40;;;;;;2314283;55;21076;-74
2022/09/25 13:59:34;;;;;;;6.18;3.97;;;20.10;63.50;;;;;;2317818;54;20937;-74
2022/09/25 14:02:32;;;;;;;4.93;2.80;;;20.10;63.60;;;;;;2315936;55;21041;-74
2022/09/25 14:04:59;;;;;;;4.70;3.25;;;20.20;63.50;;;;;;2317370;55;20957;-73
2022/09/25 14:07:27;;;;;;;4.90;3.10;;;20.20;64.50;;;;;;2292388;55;21029;-74
2022/09/25 14:09:55;;;;;;;4.78;3.10;;;20.20;63.80;;;;;;2296106;55;20949;-75
2022/09/25 14:13:04;;;;;;;6.50;4.22;;;20.20;63.90;;;;;;2315146;55;21897;-74
2022/09/25 14:15:37;;;;;;;5.32;3.40;;;20.30;63.70;;;;;;2314868;55;21465;-73
2022/09/25 14:18:08;;;;;;;6.15;4.30;;;20.30;64.10;;;;;;2314952;55;20949;-73
2022/09/25 14:20:40;;;;;;;7.47;4.40;;;20.30;64.00;;;;;;2315196;55;21972;-74
2022/09/25 14:23:27;;;;;;;5.65;3.53;;;20.30;64.00;;;;;;2448914;54;20969;-74
2022/09/25 14:25:58;;;;;;;4.80;2.92;;;20.30;64.00;;;;;;2316938;55;21469;-74
2022/09/25 14:28:30;;;;;;;5.62;3.75;;;20.30;64.10;;;;;;2325336;54;21033;-73
2022/09/25 14:31:18;;;;;;;5.13;2.90;;;20.40;64.30;;;;;;2270062;55;1802778;-74
2022/09/25 14:35:46;;;;;;;4.68;2.72;;;20.40;64.10;;;;;;2344727;54;21627;-73
2022/09/25 14:38:44;;;;;;;4.75;2.17;;;20.40;63.70;;;;;;2315211;55;20948;-75
2022/09/25 14:41:45;;;;;;;4.45;2.67;;;20.50;64.10;;;;;;2314731;55;21072;-74
2022/09/25 14:47:43;;;;;;;4.45;2.55;;;20.50;64.10;;;;;;2314974;55;21037;-74
2022/09/25 14:50:34;;;;;;;3.10;1.70;;;20.50;63.40;;;;;;2315293;55;21733;-74
2022/09/25 14:53:07;;;;;;;5.12;2.47;;;20.60;63.80;;;;;;2315241;55;20969;-73
2022/09/25 14:55:35;;;;;;;3.58;2.20;;;20.60;63.60;;;;;;2302857;55;20986;-74
2022/09/25 14:58:02;;;;;;;4.20;2.45;;;20.60;63.90;;;;;;2290186;55;20957;-74